sensor_id;sensor_type;location;lat;lon;timestamp;pressure;altitude;pressure_sealevel;temperature;humidity
64908;BME280;64365;-1.756;110.040;2023-04-01T00:01:15;98987.69;;;11.19;100.00
64908;BME280;64365;-1.756;110.040;2023-04-01T00:03:42;98983.56;;;11.18;100.00
64908;BME280;64365;-1.756;110.040;2023-04-01T00:06:10;98991.53;;;11.18;100.00
64908;BME280;64365;-1.756;110.040;2023-04-01T00:08:38;98990.88;;;11.14;100.00
64908;BME280;64365;-1.756;110.040;2023-04-01T00:11:05;99001.09;;;11.15;100.00
64908;BME280;64365;-1.756;110.040;2023-04-01T00:13:32;98989.25;;;11.16;100.00
64908;BME280;64365;-1.756;110.040;2023-04-01T00:16:00;99001.09;;;11.15;100.00
64908;BME280;64365;-1.756;110.040;2023-04-01T00:18:28;98991.94;;;11.16;100.00
64908;BME280;64365;-1.756;110.040;2023-04-01T00:20:55;98995.81;;;11.11;100.00
64908;BME280;64365;-1.756;110.040;2023-04-01T00:23:21;99002.66;;;11.12;100.00
64908;BME280;64365;-1.756;110.040;2023-04-01T00:25:48;98999.63;;;11.10;100.00
64908;BME280;64365;-1.756;110.040;2023-04-01T00:28:15;98997.41;;;11.09;100.00
64908;BME280;64365;-1.756;110.040;2023-04-01T00:30:41;98991.34;;;11.08;100.00
64908;BME280;64365;-1.756;110.040;2023-04-01T00:33:10;99003.06;;;11.11;100.00
64908;BME280;64365;-1.756;110.040;2023-04-01T00:35:37;99002.03;;;11.05;100.00
64908;BME280;64365;-1.756;110.040;2023-04-01T00:38:04;98999.78;;;11.03;100.00
64908;BME280;64365;-1.756;110.040;2023-04-01T00:40:33;99000.53;;;11.04;100.00
64908;BME280;64365;-1.756;110.040;2023-04-01T00:43:00;99008.84;;;11.06;100.00
64908;BME280;64365;-1.756;110.040;2023-04-01T00:45:31;99012.34;;;11.03;100.00
64908;BME280;64365;-1.756;110.040;2023-04-01T00:48:02;98992.34;;;10.94;100.00
64908;BME280;64365;-1.756;110.040;2023-04-01T00:50:33;99005.59;;;10.98;100.00
64908;BME280;64365;-1.756;110.040;2023-04-01T00:53:01;99010.97;;;10.94;99.93
64908;BME280;64365;-1.756;110.040;2023-04-01T00:55:32;99019.75;;;10.91;100.00
64908;BME280;64365;-1.756;110.040;2023-04-01T00:58:02;99012.59;;;10.88;100.00
64908;BME280;64365;-1.756;110.040;2023-04-01T01:00:30;99006.13;;;10.89;100.00
64908;BME280;64365;-1.756;110.040;2023-04-01T01:02:57;99013.69;;;10.91;100.00
64908;BME280;64365;-1.756;110.040;2023-04-01T01:05:34;99018.19;;;10.94;100.00
64908;BME280;64365;-1.756;110.040;2023-04-01T01:08:12;99021.25;;;10.92;100.00
64908;BME280;64365;-1.756;110.040;2023-04-01T01:10:42;99022.75;;;10.93;100.00
64908;BME280;64365;-1.756;110.040;2023-04-01T01:13:17;99013.75;;;10.87;100.00
64908;BME280;64365;-1.756;110.040;2023-04-01T01:15:52;99016.47;;;10.84;100.00
64908;BME280;64365;-1.756;110.040;2023-04-01T01:18:28;99025.53;;;10.86;100.00
64908;BME280;64365;-1.756;110.040;2023-04-01T01:21:28;99020.72;;;10.81;100.00
64908;BME280;64365;-1.756;110.040;2023-04-01T01:24:31;99023.50;;;10.74;100.00
64908;BME280;64365;-1.756;110.040;2023-04-01T01:27:06;99017.34;;;10.77;100.00
64908;BME280;64365;-1.756;110.040;2023-04-01T01:29:48;99021.66;;;10.71;100.00
64908;BME280;64365;-1.756;110.040;2023-04-01T01:32:38;99025.59;;;10.63;100.00
64908;BME280;64365;-1.756;110.040;2023-04-01T01:35:24;99020.47;;;10.52;100.00
64908;BME280;64365;-1.756;110.040;2023-04-01T01:37:55;99026.47;;;10.56;100.00
64908;BME280;64365;-1.756;110.040;2023-04-01T01:40:24;99026.06;;;10.57;100.00
64908;BME280;64365;-1.756;110.040;2023-04-01T01:42:56;99031.03;;;10.55;100.00
64908;BME280;64365;-1.756;110.040;2023-04-01T01:45:25;99026.06;;;10.57;100.00
64908;BME280;64365;-1.756;110.040;2023-04-01T01:47:53;99033.56;;;10.63;100.00
64908;BME280;64365;-1.756;110.040;2023-04-01T01:50:23;99029.75;;;10.64;100.00
64908;BME280;64365;-1.756;110.040;2023-04-01T01:53:00;99024.84;;;10.62;100.00
64908;BME280;64365;-1.756;110.040;2023-04-01T01:55:29;99034.72;;;10.61;100.00
64908;BME280;64365;-1.756;110.040;2023-04-01T01:57:58;99038.53;;;10.60;100.00
64908;BME280;64365;-1.756;110.040;2023-04-01T02:00:26;99020.53;;;10.48;100.00
64908;BME280;64365;-1.756;110.040;2023-04-01T02:02:53;99041.66;;;10.55;100.00
64908;BME280;64365;-1.756;110.040;2023-04-01T02:05:24;99034.44;;;10.56;100.00
64908;BME280;64365;-1.756;110.040;2023-04-01T02:07:55;99041.19;;;10.60;100.00
64908;BME280;64365;-1.756;110.040;2023-04-01T02:10:26;99042.41;;;10.56;100.00
64908;BME280;64365;-1.756;110.040;2023-04-01T02:12:57;99043.50;;;10.58;100.00
64908;BME280;64365;-1.756;110.040;2023-04-01T02:15:27;99039.28;;;10.61;100.00
64908;BME280;64365;-1.756;110.040;2023-04-01T02:17:56;99051.72;;;10.68;100.00
64908;BME280;64365;-1.756;110.040;2023-04-01T02:20:27;99046.72;;;10.70;100.00
64908;BME280;64365;-1.756;110.040;2023-04-01T02:22:56;99051.63;;;10.71;100.00
64908;BME280;64365;-1.756;110.040;2023-04-01T02:25:26;99051.97;;;10.73;100.00
64908;BME280;64365;-1.756;110.040;2023-04-01T02:27:56;99057.22;;;10.77;100.00
64908;BME280;64365;-1.756;110.040;2023-04-01T02:30:25;99058.31;;;10.79;100.00
64908;BME280;64365;-1.756;110.040;2023-04-01T02:32:53;99062.53;;;10.77;100.00
64908;BME280;64365;-1.756;110.040;2023-04-01T02:35:21;99062.88;;;10.79;100.00
64908;BME280;64365;-1.756;110.040;2023-04-01T02:37:50;99071.22;;;10.81;100.00
64908;BME280;64365;-1.756;110.040;2023-04-01T02:40:18;99071.53;;;10.83;100.00
64908;BME280;64365;-1.756;110.040;2023-04-01T02:42:45;99066.97;;;10.84;100.00
64908;BME280;64365;-1.756;110.040;2023-04-01T02:45:13;99069.97;;;10.86;100.00
64908;BME280;64365;-1.756;110.040;2023-04-01T02:47:40;99066.44;;;10.92;100.00
64908;BME280;64365;-1.756;110.040;2023-04-01T02:50:07;99075.44;;;10.99;100.00
64908;BME280;64365;-1.756;110.040;2023-04-01T02:52:34;99078.38;;;11.04;100.00
64908;BME280;64365;-1.756;110.040;2023-04-01T02:55:03;99075.66;;;11.08;100.00
64908;BME280;64365;-1.756;110.040;2023-04-01T02:57:29;99088.59;;;11.06;100.00
64908;BME280;64365;-1.756;110.040;2023-04-01T02:59:56;99081.72;;;11.08;100.00
64908;BME280;64365;-1.756;110.040;2023-04-01T03:02:22;99087.47;;;11.07;100.00
64908;BME280;64365;-1.756;110.040;2023-04-01T03:04:49;99099.09;;;11.13;100.00
64908;BME280;64365;-1.756;110.040;2023-04-01T03:07:15;99100.59;;;11.14;100.00
64908;BME280;64365;-1.756;110.040;2023-04-01T03:09:42;99101.34;;;11.15;100.00
64908;BME280;64365;-1.756;110.040;2023-04-01T03:12:10;99107.06;;;11.13;100.00
64908;BME280;64365;-1.756;110.040;2023-04-01T03:14:36;99109.75;;;11.13;100.00
64908;BME280;64365;-1.756;110.040;2023-04-01T03:17:04;99112.75;;;11.15;100.00
64908;BME280;64365;-1.756;110.040;2023-04-01T03:19:31;99108.13;;;11.19;100.00
64908;BME280;64365;-1.756;110.040;2023-04-01T03:21:58;99115.63;;;11.24;100.00
64908;BME280;64365;-1.756;110.040;2023-04-01T03:24:24;99127.31;;;11.27;100.00
64908;BME280;64365;-1.756;110.040;2023-04-01T03:26:51;99121.28;;;11.26;100.00
64908;BME280;64365;-1.756;110.040;2023-04-01T03:29:19;99126.94;;;11.28;100.00
64908;BME280;64365;-1.756;110.040;2023-04-01T03:31:46;99129.94;;;11.31;100.00
64908;BME280;64365;-1.756;110.040;2023-04-01T03:34:12;99140.97;;;11.29;100.00
64908;BME280;64365;-1.756;110.040;2023-04-01T03:36:39;99134.50;;;11.30;100.00
64908;BME280;64365;-1.756;110.040;2023-04-01T03:39:05;99139.00;;;11.33;100.00
64908;BME280;64365;-1.756;110.040;2023-04-01T03:41:32;99140.09;;;11.36;100.00
64908;BME280;64365;-1.756;110.040;2023-04-01T03:43:59;99136.28;;;11.37;100.00
64908;BME280;64365;-1.756;110.040;2023-04-01T03:46:27;99146.50;;;11.38;100.00
64908;BME280;64365;-1.756;110.040;2023-04-01T03:48:53;99146.09;;;11.40;100.00
64908;BME280;64365;-1.756;110.040;2023-04-01T03:51:20;99150.59;;;11.43;100.00
64908;BME280;64365;-1.756;110.040;2023-04-01T03:53:46;99153.66;;;11.41;100.00
64908;BME280;64365;-1.756;110.040;2023-04-01T03:56:13;99160.81;;;11.44;100.00
64908;BME280;64365;-1.756;110.040;2023-04-01T03:58:40;99166.91;;;11.45;100.00
64908;BME280;64365;-1.756;110.040;2023-04-01T04:01:14;99167.25;;;11.47;100.00
64908;BME280;64365;-1.756;110.040;2023-04-01T04:03:42;99170.66;;;11.48;100.00
64908;BME280;64365;-1.756;110.040;2023-04-01T04:06:11;99169.09;;;11.50;100.00
64908;BME280;64365;-1.756;110.040;2023-04-01T04:08:38;99173.91;;;11.55;100.00
64908;BME280;64365;-1.756;110.040;2023-04-01T04:11:05;99189.81;;;11.59;100.00
64908;BME280;64365;-1.756;110.040;2023-04-01T04:13:32;99189.41;;;11.60;100.00
64908;BME280;64365;-1.756;110.040;2023-04-01T04:15:59;99189.19;;;11.51;99.89
64908;BME280;64365;-1.756;110.040;2023-04-01T04:18:25;99196.25;;;11.61;99.67
64908;BME280;64365;-1.756;110.040;2023-04-01T04:20:53;99201.97;;;11.60;99.85
64908;BME280;64365;-1.756;110.040;2023-04-01T04:23:20;99208.03;;;11.60;100.00
64908;BME280;64365;-1.756;110.040;2023-04-01T04:25:54;99202.31;;;11.62;100.00
64908;BME280;64365;-1.756;110.040;2023-04-01T04:28:21;99208.31;;;11.66;99.76
64908;BME280;64365;-1.756;110.040;2023-04-01T04:30:47;99217.84;;;11.63;99.40
64908;BME280;64365;-1.756;110.040;2023-04-01T04:33:14;99210.22;;;11.66;100.00
64908;BME280;64365;-1.756;110.040;2023-04-01T04:35:40;99220.00;;;11.72;100.00
64908;BME280;64365;-1.756;110.040;2023-04-01T04:38:08;99228.72;;;11.73;100.00
64908;BME280;64365;-1.756;110.040;2023-04-01T04:40:38;99235.13;;;11.75;100.00
64908;BME280;64365;-1.756;110.040;2023-04-01T04:43:05;99233.97;;;11.76;99.99
64908;BME280;64365;-1.756;110.040;2023-04-01T04:45:32;99241.13;;;11.79;99.69
64908;BME280;64365;-1.756;110.040;2023-04-01T04:47:59;99243.06;;;11.79;99.75
64908;BME280;64365;-1.756;110.040;2023-04-01T04:50:25;99250.69;;;11.77;99.51
64908;BME280;64365;-1.756;110.040;2023-04-01T04:52:52;99254.03;;;11.81;100.00
64908;BME280;64365;-1.756;110.040;2023-04-01T04:55:20;99255.53;;;11.82;100.00
64908;BME280;64365;-1.756;110.040;2023-04-01T04:57:47;99258.47;;;11.88;100.00
64908;BME280;64365;-1.756;110.040;2023-04-01T05:00:14;99273.28;;;11.89;99.80
64908;BME280;64365;-1.756;110.040;2023-04-01T05:02:40;99279.72;;;11.91;99.55
64908;BME280;64365;-1.756;110.040;2023-04-01T05:05:07;99271.72;;;11.91;99.85
64908;BME280;64365;-1.756;110.040;2023-04-01T05:07:34;99282.38;;;11.91;100.00
64908;BME280;64365;-1.756;110.040;2023-04-01T05:10:00;99291.88;;;11.92;100.00
64908;BME280;64365;-1.756;110.040;2023-04-01T05:12:28;99288.06;;;11.93;99.52
64908;BME280;64365;-1.756;110.040;2023-04-01T05:14:56;99297.91;;;11.96;99.18
64908;BME280;64365;-1.756;110.040;2023-04-01T05:17:22;99295.25;;;11.96;98.50
64908;BME280;64365;-1.756;110.040;2023-04-01T05:19:49;99297.59;;;11.91;98.29
64908;BME280;64365;-1.756;110.040;2023-04-01T05:22:15;99295.69;;;11.91;98.69
64908;BME280;64365;-1.756;110.040;2023-04-01T05:24:42;99299.84;;;11.92;98.68
64908;BME280;64365;-1.756;110.040;2023-04-01T05:27:09;99299.59;;;11.87;97.62
64908;BME280;64365;-1.756;110.040;2023-04-01T05:29:37;99307.75;;;11.76;97.95
64908;BME280;64365;-1.756;110.040;2023-04-01T05:32:03;99313.78;;;11.80;99.01
64908;BME280;64365;-1.756;110.040;2023-04-01T05:34:30;99319.78;;;11.84;99.15
64908;BME280;64365;-1.756;110.040;2023-04-01T05:36:56;99318.97;;;11.87;98.74
64908;BME280;64365;-1.756;110.040;2023-04-01T05:39:23;99328.88;;;11.87;98.37
64908;BME280;64365;-1.756;110.040;2023-04-01T05:41:50;99327.41;;;11.82;98.05
64908;BME280;64365;-1.756;110.040;2023-04-01T05:44:16;99334.66;;;11.82;97.86
64908;BME280;64365;-1.756;110.040;2023-04-01T05:46:44;99340.72;;;11.82;98.62
64908;BME280;64365;-1.756;110.040;2023-04-01T05:49:11;99337.19;;;11.89;98.56
64908;BME280;64365;-1.756;110.040;2023-04-01T05:51:38;99344.00;;;11.90;97.88
64908;BME280;64365;-1.756;110.040;2023-04-01T05:54:04;99346.25;;;11.91;98.21
64908;BME280;64365;-1.756;110.040;2023-04-01T05:56:31;99348.91;;;11.95;98.68
64908;BME280;64365;-1.756;110.040;2023-04-01T05:58:58;99362.13;;;11.99;98.13
64908;BME280;64365;-1.756;110.040;2023-04-01T06:01:24;99353.09;;;11.92;97.35
64908;BME280;64365;-1.756;110.040;2023-04-01T06:03:53;99355.75;;;11.92;97.77
64908;BME280;64365;-1.756;110.040;2023-04-01T06:06:23;99362.66;;;11.90;97.66
64908;BME280;64365;-1.756;110.040;2023-04-01T06:08:51;99355.19;;;11.81;97.49
64908;BME280;64365;-1.756;110.040;2023-04-01T06:11:28;99365.78;;;11.85;97.03
64908;BME280;64365;-1.756;110.040;2023-04-01T06:14:10;99371.50;;;11.83;97.71
64908;BME280;64365;-1.756;110.040;2023-04-01T06:16:49;99378.69;;;11.86;97.93
64908;BME280;64365;-1.756;110.040;2023-04-01T06:19:27;99378.22;;;11.91;98.07
64908;BME280;64365;-1.756;110.040;2023-04-01T06:22:12;99393.03;;;11.92;97.82
64908;BME280;64365;-1.756;110.040;2023-04-01T06:25:07;99393.41;;;11.94;98.27
64908;BME280;64365;-1.756;110.040;2023-04-01T06:27:53;99401.59;;;12.04;97.49
64908;BME280;64365;-1.756;110.040;2023-04-01T06:30:34;99409.53;;;12.07;97.21
64908;BME280;64365;-1.756;110.040;2023-04-01T06:33:14;99415.97;;;12.10;96.84
64908;BME280;64365;-1.756;110.040;2023-04-01T06:36:06;99421.28;;;12.10;96.75
64908;BME280;64365;-1.756;110.040;2023-04-01T06:41:56;99431.94;;;12.10;96.67
64908;BME280;64365;-1.756;110.040;2023-04-01T06:44:35;99432.69;;;12.10;96.62
64908;BME280;64365;-1.756;110.040;2023-04-01T06:47:20;99439.56;;;12.08;96.62
64908;BME280;64365;-1.756;110.040;2023-04-01T06:49:55;99444.91;;;12.08;97.14
64908;BME280;64365;-1.756;110.040;2023-04-01T06:52:28;99444.13;;;12.11;97.22
64908;BME280;64365;-1.756;110.040;2023-04-01T06:54:58;99459.03;;;12.05;97.33
64908;BME280;64365;-1.756;110.040;2023-04-01T06:57:31;99458.03;;;12.19;96.74
64908;BME280;64365;-1.756;110.040;2023-04-01T07:00:02;99456.41;;;12.25;96.72
64908;BME280;64365;-1.756;110.040;2023-04-01T07:02:34;99455.97;;;12.30;96.60
64908;BME280;64365;-1.756;110.040;2023-04-01T07:05:05;99468.03;;;12.35;96.22
64908;BME280;64365;-1.756;110.040;2023-04-01T07:07:38;99470.25;;;12.40;95.76
64908;BME280;64365;-1.756;110.040;2023-04-01T07:10:11;99468.59;;;12.46;95.66
64908;BME280;64365;-1.756;110.040;2023-04-01T07:12:43;99476.13;;;12.51;95.29
64908;BME280;64365;-1.756;110.040;2023-04-01T07:15:17;99477.16;;;12.57;94.68
64908;BME280;64365;-1.756;110.040;2023-04-01T07:17:48;99481.41;;;12.55;94.10
64908;BME280;64365;-1.756;110.040;2023-04-01T07:20:20;99483.69;;;12.53;94.70
64908;BME280;64365;-1.756;110.040;2023-04-01T07:22:50;99488.97;;;12.56;93.83
64908;BME280;64365;-1.756;110.040;2023-04-01T07:25:20;99493.56;;;12.56;94.23
64908;BME280;64365;-1.756;110.040;2023-04-01T07:27:47;99503.47;;;12.55;93.97
64908;BME280;64365;-1.756;110.040;2023-04-01T07:30:15;99498.91;;;12.56;94.16
64908;BME280;64365;-1.756;110.040;2023-04-01T07:32:46;99508.72;;;12.59;94.19
64908;BME280;64365;-1.756;110.040;2023-04-01T07:35:23;99517.13;;;12.57;93.81
64908;BME280;64365;-1.756;110.040;2023-04-01T07:38:01;99524.38;;;12.57;93.16
64908;BME280;64365;-1.756;110.040;2023-04-01T07:40:39;99518.34;;;12.53;93.59
64908;BME280;64365;-1.756;110.040;2023-04-01T07:43:21;99516.56;;;12.46;93.33
64908;BME280;64365;-1.756;110.040;2023-04-01T07:45:58;99523.06;;;12.45;93.93
64908;BME280;64365;-1.756;110.040;2023-04-01T07:48:31;99529.88;;;12.46;93.77
64908;BME280;64365;-1.756;110.040;2023-04-01T07:51:02;99540.53;;;12.46;94.06
64908;BME280;64365;-1.756;110.040;2023-04-01T07:53:36;99527.22;;;12.46;93.97
64908;BME280;64365;-1.756;110.040;2023-04-01T07:56:06;99542.06;;;12.47;93.93
64908;BME280;64365;-1.756;110.040;2023-04-01T07:58:40;99546.63;;;12.46;93.73
64908;BME280;64365;-1.756;110.040;2023-04-01T08:01:15;99548.53;;;12.46;93.91
64908;BME280;64365;-1.756;110.040;2023-04-01T08:04:03;99555.03;;;12.45;94.40
64908;BME280;64365;-1.756;110.040;2023-04-01T08:06:39;99559.13;;;12.50;94.66
64908;BME280;64365;-1.756;110.040;2023-04-01T08:09:18;99557.59;;;12.52;93.70
64908;BME280;64365;-1.756;110.040;2023-04-01T08:11:59;99566.03;;;12.47;93.81
64908;BME280;64365;-1.756;110.040;2023-04-01T08:14:35;99568.38;;;12.45;94.07
64908;BME280;64365;-1.756;110.040;2023-04-01T08:17:08;99577.06;;;12.49;94.90
64908;BME280;64365;-1.756;110.040;2023-04-01T08:19:49;99578.53;;;12.50;94.64
64908;BME280;64365;-1.756;110.040;2023-04-01T08:22:25;99576.59;;;12.54;94.23
64908;BME280;64365;-1.756;110.040;2023-04-01T08:24:55;99588.28;;;12.60;93.97
64908;BME280;64365;-1.756;110.040;2023-04-01T08:27:28;99589.38;;;12.63;94.03
64908;BME280;64365;-1.756;110.040;2023-04-01T08:30:01;99591.59;;;12.68;94.41
64908;BME280;64365;-1.756;110.040;2023-04-01T08:32:32;99597.66;;;12.69;94.06
64908;BME280;64365;-1.756;110.040;2023-04-01T08:35:08;99596.50;;;12.70;93.84
64908;BME280;64365;-1.756;110.040;2023-04-01T08:37:38;99610.66;;;12.67;94.08
64908;BME280;64365;-1.756;110.040;2023-04-01T08:40:39;99612.13;;;12.68;94.06
64908;BME280;64365;-1.756;110.040;2023-04-01T08:43:15;99609.09;;;12.69;93.82
64908;BME280;64365;-1.756;110.040;2023-04-01T08:46:03;99617.84;;;12.70;94.13
64908;BME280;64365;-1.756;110.040;2023-04-01T08:48:53;99620.13;;;12.68;94.06
64908;BME280;64365;-1.756;110.040;2023-04-01T08:51:47;99617.84;;;12.70;93.66
64908;BME280;64365;-1.756;110.040;2023-04-01T08:54:34;99629.66;;;12.69;93.43
64908;BME280;64365;-1.756;110.040;2023-04-01T08:57:12;99635.78;;;12.66;93.75
64908;BME280;64365;-1.756;110.040;2023-04-01T08:59:57;99633.59;;;12.60;93.90
64908;BME280;64365;-1.756;110.040;2023-04-01T09:02:58;99642.00;;;12.59;94.12
64908;BME280;64365;-1.756;110.040;2023-04-01T09:06:11;99645.53;;;12.52;94.04
64908;BME280;64365;-1.756;110.040;2023-04-01T09:08:52;99645.97;;;12.47;94.71
64908;BME280;64365;-1.756;110.040;2023-04-01T09:11:28;99645.16;;;12.50;94.76
64908;BME280;64365;-1.756;110.040;2023-04-01T09:17:33;99654.97;;;12.57;94.87
64908;BME280;64365;-1.756;110.040;2023-04-01T09:20:17;99657.16;;;12.62;94.74
64908;BME280;64365;-1.756;110.040;2023-04-01T09:22:53;99658.69;;;12.63;94.33
64908;BME280;64365;-1.756;110.040;2023-04-01T09:25:44;99658.72;;;12.59;94.36
64908;BME280;64365;-1.756;110.040;2023-04-01T09:28:18;99664.75;;;12.63;94.35
64908;BME280;64365;-1.756;110.040;2023-04-01T09:31:04;99671.72;;;12.57;94.51
64908;BME280;64365;-1.756;110.040;2023-04-01T09:33:55;99666.03;;;12.55;94.23
64908;BME280;64365;-1.756;110.040;2023-04-01T09:36:38;99669.75;;;12.61;94.91
64908;BME280;64365;-1.756;110.040;2023-04-01T09:39:21;99692.81;;;12.72;94.49
64908;BME280;64365;-1.756;110.040;2023-04-01T09:42:14;99690.34;;;12.85;94.54
64908;BME280;64365;-1.756;110.040;2023-04-01T09:44:44;99696.72;;;12.91;94.21
64908;BME280;64365;-1.756;110.040;2023-04-01T09:47:27;99693.47;;;13.03;94.86
64908;BME280;64365;-1.756;110.040;2023-04-01T09:50:16;99698.25;;;13.12;94.26
64908;BME280;64365;-1.756;110.040;2023-04-01T09:52:57;99701.97;;;13.18;93.81
64908;BME280;64365;-1.756;110.040;2023-04-01T09:55:48;99700.75;;;13.23;94.08
64908;BME280;64365;-1.756;110.040;2023-04-01T09:58:32;99705.03;;;13.40;93.19
64908;BME280;64365;-1.756;110.040;2023-04-01T10:01:33;99711.44;;;13.46;93.18
64908;BME280;64365;-1.756;110.040;2023-04-01T10:04:23;99718.94;;;13.52;92.86
64908;BME280;64365;-1.756;110.040;2023-04-01T10:07:28;99720.34;;;13.60;91.77
64908;BME280;64365;-1.756;110.040;2023-04-01T10:13:30;99722.66;;;13.78;90.47
64908;BME280;64365;-1.756;110.040;2023-04-01T10:16:31;99729.34;;;13.86;90.66
64908;BME280;64365;-1.756;110.040;2023-04-01T10:19:11;99731.88;;;13.93;90.37
64908;BME280;64365;-1.756;110.040;2023-04-01T10:22:12;99732.66;;;13.94;90.25
64908;BME280;64365;-1.756;110.040;2023-04-01T10:25:16;99739.56;;;13.91;90.17
64908;BME280;64365;-1.756;110.040;2023-04-01T10:28:07;99738.81;;;13.91;90.30
64908;BME280;64365;-1.756;110.040;2023-04-01T10:31:02;99743.41;;;13.90;90.61
64908;BME280;64365;-1.756;110.040;2023-04-01T10:34:02;99745.53;;;13.99;90.40
64908;BME280;64365;-1.756;110.040;2023-04-01T10:36:48;99745.56;;;14.15;90.44
64908;BME280;64365;-1.756;110.040;2023-04-01T10:39:33;99735.31;;;14.14;90.63
64908;BME280;64365;-1.756;110.040;2023-04-01T10:42:39;99751.59;;;14.20;89.05
64908;BME280;64365;-1.756;110.040;2023-04-01T10:45:38;99752.34;;;14.20;89.31
64908;BME280;64365;-1.756;110.040;2023-04-01T10:51:30;99756.09;;;14.23;89.14
64908;BME280;64365;-1.756;110.040;2023-04-01T10:54:20;99763.38;;;14.22;88.47
64908;BME280;64365;-1.756;110.040;2023-04-01T10:56:54;99760.50;;;14.13;88.80
64908;BME280;64365;-1.756;110.040;2023-04-01T10:59:45;99764.19;;;14.19;89.16
64908;BME280;64365;-1.756;110.040;2023-04-01T11:02:57;99768.38;;;14.20;88.41
64908;BME280;64365;-1.756;110.040;2023-04-01T11:09:19;99773.25;;;14.25;89.35
64908;BME280;64365;-1.756;110.040;2023-04-01T11:12:23;99781.94;;;14.29;88.57
64908;BME280;64365;-1.756;110.040;2023-04-01T11:15:24;99776.84;;;14.35;88.97
64908;BME280;64365;-1.756;110.040;2023-04-01T11:21:34;99784.66;;;14.26;86.87
64908;BME280;64365;-1.756;110.040;2023-04-01T11:24:17;99794.34;;;14.20;87.25
64908;BME280;64365;-1.756;110.040;2023-04-01T11:26:55;99791.41;;;14.14;88.27
64908;BME280;64365;-1.756;110.040;2023-04-01T11:29:46;99800.03;;;14.22;88.78
64908;BME280;64365;-1.756;110.040;2023-04-01T11:32:29;99804.16;;;14.26;87.87
64908;BME280;64365;-1.756;110.040;2023-04-01T11:37:57;99812.97;;;14.23;87.95
64908;BME280;64365;-1.756;110.040;2023-04-01T11:40:32;99815.66;;;14.23;88.16
64908;BME280;64365;-1.756;110.040;2023-04-01T11:43:09;99819.81;;;14.24;88.77
64908;BME280;64365;-1.756;110.040;2023-04-01T11:45:43;99819.41;;;14.26;87.79
64908;BME280;64365;-1.756;110.040;2023-04-01T11:48:28;99831.28;;;14.25;88.03
64908;BME280;64365;-1.756;110.040;2023-04-01T11:51:12;99837.66;;;14.31;87.88
64908;BME280;64365;-1.756;110.040;2023-04-01T11:53:47;99836.13;;;14.30;87.56
64908;BME280;64365;-1.756;110.040;2023-04-01T11:56:36;99832.78;;;14.26;87.29
64908;BME280;64365;-1.756;110.040;2023-04-01T11:59:36;99840.78;;;14.26;87.16
64908;BME280;64365;-1.756;110.040;2023-04-01T12:02:11;99848.06;;;14.25;87.22
64908;BME280;64365;-1.756;110.040;2023-04-01T12:04:59;99845.81;;;14.24;87.04
64908;BME280;64365;-1.756;110.040;2023-04-01T12:07:45;99849.00;;;14.15;87.11
64908;BME280;64365;-1.756;110.040;2023-04-01T12:10:19;99861.69;;;14.11;87.39
64908;BME280;64365;-1.756;110.040;2023-04-01T12:12:54;99859.91;;;14.04;87.45
64908;BME280;64365;-1.756;110.040;2023-04-01T12:15:30;99870.66;;;14.01;87.18
64908;BME280;64365;-1.756;110.040;2023-04-01T12:18:09;99865.84;;;13.92;87.04
64908;BME280;64365;-1.756;110.040;2023-04-01T12:20:49;99872.84;;;13.86;87.34
64908;BME280;64365;-1.756;110.040;2023-04-01T12:23:46;99869.53;;;13.78;87.42
64908;BME280;64365;-1.756;110.040;2023-04-01T12:26:43;99869.75;;;13.63;88.12
64908;BME280;64365;-1.756;110.040;2023-04-01T12:29:36;99877.78;;;13.63;88.28
64908;BME280;64365;-1.756;110.040;2023-04-01T12:32:15;99888.13;;;13.61;88.63
64908;BME280;64365;-1.756;110.040;2023-04-01T12:34:55;99891.94;;;13.60;89.04
64908;BME280;64365;-1.756;110.040;2023-04-01T12:37:35;99893.88;;;13.60;89.15
64908;BME280;64365;-1.756;110.040;2023-04-01T12:40:20;99897.22;;;13.64;89.36
64908;BME280;64365;-1.756;110.040;2023-04-01T12:42:59;99893.31;;;13.69;89.21
64908;BME280;64365;-1.756;110.040;2023-04-01T12:45:30;99897.66;;;13.82;88.92
64908;BME280;64365;-1.756;110.040;2023-04-01T12:48:19;99898.03;;;13.85;89.48
64908;BME280;64365;-1.756;110.040;2023-04-01T12:53:56;99899.69;;;13.98;89.76
64908;BME280;64365;-1.756;110.040;2023-04-01T12:56:33;99904.28;;;13.98;88.59
64908;BME280;64365;-1.756;110.040;2023-04-01T12:59:23;99912.78;;;13.93;88.87
64908;BME280;64365;-1.756;110.040;2023-04-01T13:02:01;99915.50;;;13.89;89.08
64908;BME280;64365;-1.756;110.040;2023-04-01T13:04:54;99917.38;;;13.92;88.94
64908;BME280;64365;-1.756;110.040;2023-04-01T13:07:42;99923.19;;;13.87;89.20
64908;BME280;64365;-1.756;110.040;2023-04-01T13:10:31;99926.59;;;13.88;89.01
64908;BME280;64365;-1.756;110.040;2023-04-01T13:13:24;99931.94;;;13.88;88.98
64908;BME280;64365;-1.756;110.040;2023-04-01T13:15:58;99941.88;;;13.87;88.68
64908;BME280;64365;-1.756;110.040;2023-04-01T13:18:38;99947.22;;;13.87;88.66
64908;BME280;64365;-1.756;110.040;2023-04-01T13:21:12;99948.41;;;13.82;88.61
64908;BME280;64365;-1.756;110.040;2023-04-01T13:23:52;99954.56;;;13.79;88.38
64908;BME280;64365;-1.756;110.040;2023-04-01T13:26:28;99941.41;;;13.69;88.32
64908;BME280;64365;-1.756;110.040;2023-04-01T13:29:04;99967.59;;;13.77;88.31
64908;BME280;64365;-1.756;110.040;2023-04-01T13:31:44;99964.19;;;13.73;87.83
64908;BME280;64365;-1.756;110.040;2023-04-01T13:34:24;99974.13;;;13.73;88.02
64908;BME280;64365;-1.756;110.040;2023-04-01T13:37:04;99964.34;;;13.62;88.20
64908;BME280;64365;-1.756;110.040;2023-04-01T13:39:41;99979.75;;;13.55;88.55
64908;BME280;64365;-1.756;110.040;2023-04-01T13:42:21;99981.34;;;13.48;88.77
64908;BME280;64365;-1.756;110.040;2023-04-01T13:44:54;99988.34;;;13.39;88.96